Terminal Aerodrome Forecast
Issued by NWS

Home | Current Version | Previous Version | Graphics & Text | Print | Product List | Glossary On
Versions: 1 2 3 4 5 6 7 8 9 10 11 12 13 14 15 16 17 18 19 20 21 22 23 24 25 26 27 28 29 30 31 32 33 34 35 36 37 38 39
975
FTUS45 KGGW 241135
TAFOLF
TAF
KOLF 241135Z 2412/2512 07007KT P6SM OVC008
     FM241800 08006KT P6SM BKN023
     FM250400 07011KT P6SM BKN017=

USA.gov is the U.S. government's official web portal to all federal, state and local government web resources and services.